Time;durP1;ratioP1;P1;durP2;ratioP2;P2;SDS_P1;SDS_P2;PMS_P1;PMS_P2;Temp;Humidity;BMP_temperature;BMP_pressure;BME280_temperature;BME280_humidity;BME280_pressure;Samples;Min_cycle;Max_cycle;Signal;HPM_P1;HPM_P2
2022/09/09 00:00:33;;;;;;;12.73;7.68;;;;;;;20.44;56.83;99866.47;3145484;28;20055;-64
2022/09/09 00:02:16;;;;;;;15.57;8.20;;;;;;;20.43;56.75;99865.63;3145953;28;20044;-64
2022/09/09 00:03:56;;;;;;;12.13;8.52;;;;;;;20.40;56.93;99870.34;3145811;28;20063;-63
2022/09/09 00:05:34;;;;;;;14.73;8.65;;;;;;;20.36;57.14;99872.41;3145262;28;20589;-64
2022/09/09 00:07:14;;;;;;;20.50;8.75;;;;;;;20.35;57.01;99864.59;3145353;28;20048;-64
2022/09/09 00:09:05;;;;;;;12.13;7.90;;;;;;;20.34;57.06;99863.75;3145592;28;20422;-64
2022/09/09 00:10:41;;;;;;;11.27;7.20;;;;;;;20.35;57.17;99867.22;3145331;28;20056;-64
2022/09/09 00:12:16;;;;;;;14.27;8.05;;;;;;;20.34;56.95;99863.75;3145871;28;20063;-65
2022/09/09 00:13:52;;;;;;;9.73;7.32;;;;;;;20.31;57.09;99866.66;3145736;28;20048;-64
2022/09/09 00:15:27;;;;;;;15.70;7.45;;;;;;;20.30;57.00;99865.00;3145417;28;20052;-65
2022/09/09 00:17:04;;;;;;;16.95;7.07;;;;;;;20.30;57.08;99874.75;3145577;28;20045;-65
2022/09/09 00:18:52;;;;;;;12.43;7.60;;;;;;;20.28;57.47;99874.84;3140441;28;20191;-65
2022/09/09 00:20:32;;;;;;;14.05;8.20;;;;;;;20.26;57.38;99865.38;3145471;28;20492;-65
2022/09/09 00:22:17;;;;;;;13.40;7.50;;;;;;;20.22;57.42;99865.63;3144845;28;20052;-65
2022/09/09 00:23:52;;;;;;;13.90;7.57;;;;;;;20.22;57.38;99862.16;3145710;28;20051;-64
2022/09/09 00:25:30;;;;;;;14.25;8.32;;;;;;;20.20;57.39;99866.72;3149725;28;20561;-64
2022/09/09 00:27:08;;;;;;;12.68;8.05;;;;;;;20.18;57.52;99864.22;3145478;28;20135;-65
2022/09/09 00:28:41;;;;;;;12.15;7.97;;;;;;;20.19;57.40;99870.34;3145384;28;20052;-65
2022/09/09 00:30:19;;;;;;;13.57;7.65;;;;;;;20.19;57.62;99870.34;3145144;28;20064;-65
2022/09/09 00:31:55;;;;;;;12.52;7.68;;;;;;;20.17;57.67;99880.19;3145812;28;20082;-65
2022/09/09 00:33:28;;;;;;;12.02;8.48;;;;;;;20.15;57.79;99876.88;3145125;28;20056;-65
2022/09/09 00:35:05;;;;;;;14.48;8.45;;;;;;;20.13;57.70;99882.28;3145342;28;20040;-65
2022/09/09 00:36:38;;;;;;;11.88;7.53;;;;;;;20.11;57.67;99884.19;3145181;28;20059;-64
2022/09/09 00:38:14;;;;;;;10.25;7.78;;;;;;;20.08;57.76;99879.16;3144939;28;20131;-64
2022/09/09 00:39:48;;;;;;;14.85;7.65;;;;;;;20.07;57.93;99887.25;3145341;28;20048;-64
2022/09/09 00:41:26;;;;;;;12.23;7.72;;;;;;;20.08;57.85;99888.91;3145210;28;20048;-64
2022/09/09 00:43:22;;;;;;;10.65;7.60;;;;;;;20.09;58.01;99885.31;3145156;28;20052;-65
2022/09/09 00:44:59;;;;;;;11.65;7.68;;;;;;;20.05;58.09;99879.41;3144759;28;20472;-65
2022/09/09 00:46:49;;;;;;;13.25;8.07;;;;;;;20.06;58.09;99885.56;3145375;28;20052;-65
2022/09/09 00:48:25;;;;;;;15.18;7.93;;;;;;;20.03;58.16;99880.53;3144517;28;20056;-65
2022/09/09 00:50:01;;;;;;;14.48;7.97;;;;;;;20.03;58.07;99885.84;3145303;28;20051;-65
2022/09/09 00:51:46;;;;;;;15.68;7.82;;;;;;;20.02;58.27;99874.38;3145743;28;20502;-66
2022/09/09 00:53:33;;;;;;;13.38;7.40;;;;;;;19.99;58.19;99880.81;3145155;28;20087;-64
2022/09/09 00:55:12;;;;;;;13.50;7.50;;;;;;;19.99;58.19;99878.16;3141207;28;20045;-65
2022/09/09 00:56:51;;;;;;;11.57;7.70;;;;;;;19.99;58.10;99887.88;3144890;28;20123;-64
2022/09/09 00:58:22;;;;;;;12.07;7.45;;;;;;;19.94;58.36;99884.78;3145061;28;20064;-64
2022/09/09 01:00:05;;;;;;;13.07;7.75;;;;;;;19.92;58.46;99882.25;3145071;28;20044;-65
2022/09/09 01:01:39;;;;;;;14.43;8.23;;;;;;;19.90;58.43;99875.41;3144702;28;20045;-65
2022/09/09 01:03:34;;;;;;;11.00;8.10;;;;;;;19.89;58.48;99887.78;3145205;28;20139;-65
2022/09/09 01:05:13;;;;;;;12.18;7.88;;;;;;;19.90;58.60;99891.28;3145054;28;20810;-63
2022/09/09 01:06:52;;;;;;;11.73;7.57;;;;;;;19.87;58.41;99887.06;3144498;28;20128;-64
2022/09/09 01:08:43;;;;;;;15.75;7.93;;;;;;;19.89;58.71;99900.19;3145232;28;20131;-64
2022/09/09 01:10:27;;;;;;;13.77;7.07;;;;;;;19.88;58.79;99888.78;3144958;28;20056;-64
2022/09/09 01:12:07;;;;;;;13.60;8.05;;;;;;;19.88;58.67;99887.94;3145342;28;20136;-64
2022/09/09 01:13:42;;;;;;;11.43;7.57;;;;;;;19.84;58.55;99881.22;3144906;28;20048;-64
2022/09/09 01:15:20;;;;;;;10.93;8.25;;;;;;;19.82;58.80;99883.13;3144860;28;20044;-64
2022/09/09 01:16:59;;;;;;;15.48;8.50;;;;;;;19.78;58.78;99890.47;3144985;28;20426;-64
2022/09/09 01:18:36;;;;;;;21.08;8.95;;;;;;;19.74;59.09;99881.97;3134786;28;20052;-64
2022/09/09 01:20:13;;;;;;;14.05;9.45;;;;;;;19.68;58.92;99879.84;3144743;28;20441;-65
2022/09/09 01:21:55;;;;;;;16.63;9.68;;;;;;;19.59;59.17;99877.09;3145155;28;20107;-65
2022/09/09 01:23:44;;;;;;;14.55;8.80;;;;;;;19.61;59.17;99880.41;3144878;28;20044;-65
2022/09/09 01:25:43;;;;;;;16.15;8.77;;;;;;;19.57;59.52;99879.00;3145023;28;20060;-65
2022/09/09 01:27:19;;;;;;;17.75;9.20;;;;;;;19.51;59.56;99882.97;3144605;28;20048;-65
2022/09/09 01:28:52;;;;;;;23.83;10.15;;;;;;;19.52;59.66;99884.66;3144987;28;20075;-65
2022/09/09 01:30:24;;;;;;;19.67;9.57;;;;;;;19.50;59.69;99878.66;3144868;28;20514;-66
2022/09/09 01:31:58;;;;;;;16.03;8.70;;;;;;;19.49;59.68;99887.53;3144913;28;20082;-66
2022/09/09 01:33:30;;;;;;;14.05;8.70;;;;;;;19.50;59.72;99884.78;3144472;28;20048;-66
2022/09/09 01:35:04;;;;;;;16.30;9.13;;;;;;;19.50;59.66;99883.94;3144632;28;20063;-66
2022/09/09 01:36:43;;;;;;;15.63;9.30;;;;;;;19.50;59.90;99883.94;3144726;28;20045;-66
2022/09/09 01:38:15;;;;;;;14.18;9.40;;;;;;;19.49;59.85;99879.59;3144831;28;20063;-65
2022/09/09 01:39:47;;;;;;;13.43;8.68;;;;;;;19.48;59.84;99877.94;3144927;28;20049;-64
2022/09/09 01:41:19;;;;;;;17.20;8.38;;;;;;;19.50;59.86;99881.31;3144601;28;20106;-64
2022/09/09 01:42:54;;;;;;;18.27;9.10;;;;;;;19.48;60.05;99878.78;3144823;28;20049;-64
2022/09/09 01:44:27;;;;;;;15.32;9.02;;;;;;;19.40;59.98;99867.97;3144332;28;20049;-64
2022/09/09 01:46:01;;;;;;;14.05;9.80;;;;;;;19.41;60.20;99874.97;3145287;28;20060;-64
2022/09/09 01:47:32;;;;;;;22.15;9.95;;;;;;;19.38;60.32;99875.22;3144902;28;20048;-64
2022/09/09 01:49:07;;;;;;;19.42;9.73;;;;;;;19.39;60.41;99878.69;3143952;28;20053;-64
2022/09/09 01:50:39;;;;;;;20.80;9.30;;;;;;;19.39;60.33;99876.06;3143573;28;20058;-64
2022/09/09 01:52:11;;;;;;;15.27;9.00;;;;;;;19.38;60.49;99869.94;3143609;28;20083;-64
2022/09/09 01:53:44;;;;;;;16.58;9.88;;;;;;;19.38;60.43;99872.56;3143585;28;20056;-64
2022/09/09 01:55:16;;;;;;;19.48;9.25;;;;;;;19.37;60.47;99877.97;3143796;28;20055;-64
2022/09/09 01:56:59;;;;;;;14.00;9.45;;;;;;;19.31;60.60;99874.00;3143733;28;20157;-64
2022/09/09 01:58:37;;;;;;;;;;;;;;;19.29;60.72;99874.16;3144142;28;20628;-64
2022/09/09 02:00:11;;;;;;;15.77;9.15;;;;;;;19.23;60.49;99871.19;3143855;28;19920;-64
2022/09/09 02:01:56;;;;;;;10.73;7.85;;;;;;;19.27;60.74;99878.72;3143675;28;20086;-64
2022/09/09 02:03:29;;;;;;;15.40;8.65;;;;;;;19.25;60.89;99874.50;3143617;28;20052;-64
2022/09/09 02:05:15;;;;;;;11.32;8.20;;;;;;;19.28;60.77;99872.44;3143704;28;20052;-64
2022/09/09 02:06:48;;;;;;;18.23;8.63;;;;;;;19.27;60.79;99876.06;3143911;28;20512;-63
2022/09/09 02:08:25;;;;;;;18.55;8.68;;;;;;;19.29;60.85;99875.97;3143566;28;20053;-64
2022/09/09 02:10:03;;;;;;;10.68;8.45;;;;;;;19.23;60.86;99869.38;3143656;28;20056;-64
2022/09/09 02:11:36;;;;;;;15.23;8.10;;;;;;;19.28;60.97;99880.38;3139794;28;20430;-64
2022/09/09 02:13:12;;;;;;;14.77;8.57;;;;;;;19.27;61.17;99878.72;3136120;28;20049;-66
2022/09/09 02:14:51;;;;;;;15.10;8.88;;;;;;;19.24;61.17;99873.69;3132360;28;20508;-64
2022/09/09 02:16:27;;;;;;;14.93;8.88;;;;;;;19.24;61.00;99873.69;3132150;28;20049;-66
2022/09/09 02:18:03;;;;;;;12.20;8.00;;;;;;;19.21;61.16;99873.91;3144098;28;20036;-63
2022/09/09 02:19:38;;;;;;;13.45;8.48;;;;;;;19.20;61.24;99877.53;3150379;28;20048;-65
2022/09/09 02:21:13;;;;;;;16.55;8.23;;;;;;;19.20;61.26;99868.78;3147348;28;20048;-65
2022/09/09 02:22:49;;;;;;;15.57;7.85;;;;;;;19.19;61.41;99869.72;3141246;28;20049;-63
2022/09/09 02:24:22;;;;;;;21.50;8.63;;;;;;;19.19;61.36;99864.44;3144477;28;20099;-63
2022/09/09 02:25:55;;;;;;;15.68;8.82;;;;;;;19.07;61.70;99851.25;3143878;28;20169;-63
2022/09/09 02:27:27;;;;;;;;;;;;;;;19.14;61.40;99864.81;3144897;28;20053;-63
2022/09/09 02:29:02;;;;;;;19.38;9.07;;;;;;;19.13;61.50;99864.94;3144715;28;19927;-64
2022/09/09 02:30:38;;;;;;;13.95;8.85;;;;;;;19.11;61.51;99859.78;3144234;28;20491;-64
2022/09/09 02:32:15;;;;;;;21.50;8.73;;;;;;;19.09;61.69;99875.75;3144491;28;20573;-64
2022/09/09 02:33:52;;;;;;;15.23;9.20;;;;;;;19.08;61.84;99870.59;3144447;28;20513;-63
2022/09/09 02:35:26;;;;;;;18.05;9.48;;;;;;;19.09;61.79;99869.63;3144590;28;20053;-63
2022/09/09 02:36:59;;;;;;;17.48;10.07;;;;;;;18.96;62.01;99855.72;3144628;28;20135;-63
2022/09/09 02:38:39;;;;;;;18.50;9.95;;;;;;;19.03;61.89;99870.94;3144101;28;20158;-63
2022/09/09 02:40:11;;;;;;;21.85;9.93;;;;;;;19.00;61.80;99871.19;3148730;28;20454;-63
2022/09/09 02:41:43;;;;;;;16.77;10.13;;;;;;;18.97;61.62;99866.16;3149928;28;20048;-64
2022/09/09 02:43:18;;;;;;;19.83;9.07;;;;;;;18.95;61.68;99873.34;3144372;28;20052;-63
2022/09/09 02:44:49;;;;;;;18.48;9.93;;;;;;;18.92;61.79;99873.59;3144691;28;20058;-63
2022/09/09 02:46:36;;;;;;;18.08;9.48;;;;;;;18.90;61.92;99880.81;3146682;28;20036;-64
2022/09/09 02:48:15;;;;;;;19.73;9.38;;;;;;;18.88;62.12;99877.44;3142547;28;20135;-63
2022/09/09 02:50:02;;;;;;;15.05;9.13;;;;;;;18.86;62.11;99872.28;3147017;28;20047;-63
2022/09/09 02:51:40;;;;;;;17.98;9.60;;;;;;;18.86;62.06;99876.72;3146914;28;20102;-63
2022/09/09 02:53:17;;;;;;;15.23;9.38;;;;;;;18.86;62.05;99877.53;3146902;28;20110;-64
2022/09/09 02:54:56;;;;;;;16.58;9.35;;;;;;;18.86;62.10;99880.19;3146801;28;20040;-64
2022/09/09 02:56:33;;;;;;;15.45;8.73;;;;;;;18.80;61.97;99864.84;3146623;28;20063;-64
2022/09/09 02:58:08;;;;;;;10.75;7.63;;;;;;;18.85;61.82;99873.25;3146477;28;20095;-64
2022/09/09 02:59:41;;;;;;;14.15;8.48;;;;;;;18.88;61.90;99885.34;3146527;28;20049;-63
2022/09/09 03:01:12;;;;;;;15.27;8.82;;;;;;;18.88;62.08;99881.88;3146384;28;20056;-64
2022/09/09 03:02:45;;;;;;;14.52;8.23;;;;;;;18.89;61.95;99883.56;3146352;28;20121;-63
2022/09/09 03:04:16;;;;;;;12.85;8.38;;;;;;;18.89;61.90;99886.19;3146506;28;20045;-63
2022/09/09 03:05:49;;;;;;;14.15;7.43;;;;;;;18.88;61.88;99885.34;3146707;28;20067;-64
2022/09/09 03:07:21;;;;;;;13.40;8.00;;;;;;;18.88;61.65;99881.88;3146082;28;20057;-63
2022/09/09 03:08:52;;;;;;;11.20;8.07;;;;;;;18.82;61.73;99884.03;3146524;28;20474;-64
2022/09/09 03:10:24;;;;;;;14.25;7.85;;;;;;;18.83;61.89;99890.16;3146211;28;20048;-63
2022/09/09 03:11:56;;;;;;;10.48;8.02;;;;;;;18.83;61.71;99880.44;3146782;28;20049;-64
2022/09/09 03:13:28;;;;;;;15.25;7.57;;;;;;;18.80;61.77;99878.03;3146591;28;20056;-64
2022/09/09 03:15:00;;;;;;;16.05;8.05;;;;;;;18.81;61.81;99886.78;3146314;28;20528;-63
2022/09/09 03:16:32;;;;;;;11.88;7.50;;;;;;;18.81;61.67;99882.38;3146484;28;20053;-63
2022/09/09 03:18:06;;;;;;;11.60;7.22;;;;;;;18.81;61.77;99879.72;3146730;28;20183;-63
2022/09/09 03:19:37;;;;;;;17.45;8.40;;;;;;;18.78;61.82;99887.03;3140161;28;20532;-63
2022/09/09 03:21:09;;;;;;;12.07;8.52;;;;;;;18.76;61.99;99883.69;3143771;28;20041;-64
2022/09/09 03:22:41;;;;;;;15.95;7.82;;;;;;;18.68;62.27;99889.50;3146324;28;20059;-64
2022/09/09 03:24:13;;;;;;;11.25;8.07;;;;;;;18.65;62.41;99898.50;3146188;28;20578;-64
2022/09/09 03:25:48;;;;;;;13.27;8.55;;;;;;;18.62;62.58;99903.16;3146641;28;20060;-64
2022/09/09 03:27:20;;;;;;;14.73;8.73;;;;;;;18.58;62.62;99901.75;3146173;28;20076;-64
2022/09/09 03:28:52;;;;;;;13.88;8.43;;;;;;;18.54;62.73;99898.47;3145808;28;20505;-64
2022/09/09 03:30:24;;;;;;;15.40;8.20;;;;;;;18.48;63.09;99900.75;3146096;28;20181;-64
2022/09/09 03:31:55;;;;;;;12.38;8.52;;;;;;;18.47;63.02;99902.56;3146106;28;20049;-64
2022/09/09 03:33:29;;;;;;;15.00;8.50;;;;;;;18.46;63.08;99907.94;3145818;28;20048;-64
2022/09/09 03:35:01;;;;;;;17.80;8.45;;;;;;;18.41;63.28;99909.13;3146091;28;20052;-65
2022/09/09 03:36:33;;;;;;;15.07;8.73;;;;;;;18.44;63.16;99918.59;3146025;28;20052;-64
2022/09/09 03:38:05;;;;;;;12.85;8.65;;;;;;;18.40;63.50;99912.72;3146134;28;20056;-64
2022/09/09 03:39:36;;;;;;;23.27;9.90;;;;;;;18.36;63.52;99913.91;3146154;28;20047;-66
2022/09/09 03:41:07;;;;;;;17.27;9.20;;;;;;;18.31;63.85;99918.72;3156067;28;20059;-65
2022/09/09 03:42:40;;;;;;;16.73;9.40;;;;;;;18.29;63.84;99922.41;3145892;28;20055;-65
2022/09/09 03:44:12;;;;;;;17.02;9.45;;;;;;;18.25;64.04;99919.16;3145430;28;20052;-66
2022/09/09 03:45:47;;;;;;;21.23;10.13;;;;;;;18.27;63.90;99914.59;3146155;28;20044;-66
2022/09/09 03:47:19;;;;;;;17.02;9.63;;;;;;;18.30;64.03;99919.63;3145675;28;20063;-66
2022/09/09 03:48:53;;;;;;;16.55;9.43;;;;;;;18.32;63.92;99920.38;3146281;28;20053;-65
2022/09/09 03:50:25;;;;;;;13.93;9.07;;;;;;;18.33;63.82;99924.69;3142424;28;20139;-65
2022/09/09 03:51:58;;;;;;;15.80;9.75;;;;;;;18.32;63.94;99914.28;3145853;28;20437;-65
2022/09/09 03:53:30;;;;;;;15.65;9.27;;;;;;;18.29;63.87;99912.69;3146066;28;20505;-66
2022/09/09 03:55:02;;;;;;;17.42;9.48;;;;;;;18.32;63.87;99915.09;3146215;28;20517;-65
2022/09/09 03:56:35;;;;;;;12.60;8.82;;;;;;;18.34;63.82;99915.84;3145309;28;20075;-65
2022/09/09 03:58:07;;;;;;;12.75;8.52;;;;;;;18.37;63.77;99918.25;3145609;28;20056;-66
2022/09/09 03:59:38;;;;;;;13.70;9.27;;;;;;;18.37;63.72;99914.78;3145990;28;20056;-66
2022/09/09 04:01:12;;;;;;;21.25;9.80;;;;;;;18.40;63.68;99910.09;3145832;28;20671;-65
2022/09/09 04:02:45;;;;;;;17.63;9.43;;;;;;;18.42;63.69;99909.97;3146033;28;20076;-65
2022/09/09 04:04:17;;;;;;;19.40;9.00;;;;;;;18.44;63.65;99901.94;3145680;28;20045;-64
2022/09/09 04:05:50;;;;;;;20.70;9.65;;;;;;;18.44;63.56;99907.22;3146003;28;20109;-64
2022/09/09 04:07:21;;;;;;;15.90;8.52;;;;;;;18.40;63.70;99909.25;3145823;28;20418;-64
2022/09/09 04:08:53;;;;;;;21.60;8.70;;;;;;;18.36;63.74;99908.63;3145455;28;20067;-64
2022/09/09 04:10:25;;;;;;;13.15;8.75;;;;;;;18.33;63.78;99913.31;3145884;28;20660;-65
2022/09/09 04:11:57;;;;;;;13.63;9.45;;;;;;;18.29;64.08;99912.69;3145647;28;20071;-65
2022/09/09 04:13:29;;;;;;;15.68;9.93;;;;;;;18.26;64.05;99912.94;3144682;28;20215;-65
2022/09/09 04:15:02;;;;;;;19.48;9.88;;;;;;;18.18;64.48;99910.84;3144873;28;20529;-65
2022/09/09 04:16:33;;;;;;;19.67;10.57;;;;;;;18.20;64.38;99910.75;3144686;28;20057;-65
2022/09/09 04:18:05;;;;;;;20.60;9.88;;;;;;;18.21;64.44;99912.44;3145099;28;20111;-65
2022/09/09 04:19:39;;;;;;;22.75;10.23;;;;;;;18.23;64.22;99913.16;3150382;28;20047;-65
2022/09/09 04:21:12;;;;;;;19.63;9.57;;;;;;;18.24;64.20;99914.84;3146942;28;20429;-65
2022/09/09 04:22:43;;;;;;;16.17;9.65;;;;;;;18.26;64.04;99912.94;3144564;28;20093;-65
2022/09/09 04:24:16;;;;;;;17.80;9.27;;;;;;;18.28;64.09;99910.16;3144678;28;20469;-64
2022/09/09 04:25:49;;;;;;;14.93;9.48;;;;;;;18.30;64.21;99903.81;3144691;28;20048;-65
2022/09/09 04:27:20;;;;;;;16.50;9.80;;;;;;;18.32;64.18;99896.66;3144326;28;20437;-64
2022/09/09 04:28:52;;;;;;;14.18;9.13;;;;;;;18.33;64.14;99898.31;3144622;28;20060;-65
2022/09/09 04:30:24;;;;;;;18.33;9.43;;;;;;;18.35;64.10;99896.41;3144468;28;20471;-64
2022/09/09 04:31:56;;;;;;;21.92;10.25;;;;;;;18.36;64.25;99897.25;3144828;28;20049;-64
2022/09/09 04:33:27;;;;;;;20.20;9.52;;;;;;;18.35;64.19;99912.22;3144374;28;20052;-64
2022/09/09 04:35:00;;;;;;;30.50;10.43;;;;;;;18.36;64.11;99913.91;3144462;28;20063;-65
2022/09/09 04:36:33;;;;;;;18.08;10.07;;;;;;;18.35;64.17;99906.97;3144523;28;20121;-65
2022/09/09 04:38:05;;;;;;;30.07;10.40;;;;;;;18.35;64.27;99914.03;3144583;28;20056;-65
2022/09/09 04:39:37;;;;;;;21.50;11.03;;;;;;;18.33;64.22;99911.50;3144274;28;20235;-65
2022/09/09 04:41:10;;;;;;;21.92;11.10;;;;;;;18.31;64.29;99912.56;3143777;28;20059;-65
2022/09/09 04:42:43;;;;;;;23.98;10.25;;;;;;;18.29;64.60;99915.34;3144400;28;20044;-65
2022/09/09 04:44:15;;;;;;;23.83;10.68;;;;;;;18.25;64.68;99915.66;3144252;28;20052;-65
2022/09/09 04:45:49;;;;;;;14.73;9.68;;;;;;;18.27;64.77;99914.59;3144485;28;20048;-65
2022/09/09 04:47:21;;;;;;;24.75;10.02;;;;;;;18.29;64.51;99920.59;3144708;28;20051;-65
2022/09/09 04:48:53;;;;;;;15.02;9.75;;;;;;;18.31;64.42;99923.09;3144262;28;20052;-64
2022/09/09 04:50:27;;;;;;;24.83;9.40;;;;;;;18.33;64.38;99929.94;3140494;28;20056;-65
2022/09/09 04:51:59;;;;;;;19.52;9.93;;;;;;;18.34;64.39;99929.03;3145223;28;20430;-64
2022/09/09 04:53:33;;;;;;;18.40;9.63;;;;;;;18.32;64.55;99925.66;3145161;28;20045;-64
2022/09/09 04:55:06;;;;;;;27.15;10.90;;;;;;;18.35;64.39;99921.94;3145124;28;20036;-64
2022/09/09 04:56:38;;;;;;;14.52;9.90;;;;;;;18.36;64.19;99934.16;3144612;28;20048;-64
2022/09/09 04:58:10;;;;;;;23.75;10.20;;;;;;;18.37;64.42;99939.34;3144951;28;20521;-65
2022/09/09 04:59:42;;;;;;;22.67;9.75;;;;;;;18.36;64.23;99940.28;3145152;28;20055;-64
2022/09/09 05:01:17;;;;;;;24.98;10.20;;;;;;;18.38;64.24;99943.63;3144948;28;20048;-65
2022/09/09 05:02:48;;;;;;;33.50;10.20;;;;;;;18.36;64.20;99939.44;3144804;28;20434;-66
2022/09/09 05:04:20;;;;;;;21.50;9.27;;;;;;;18.41;63.97;99939.94;3144826;28;20048;-65
2022/09/09 05:05:53;;;;;;;16.40;8.75;;;;;;;18.45;63.98;99937.91;3144801;28;20053;-65
2022/09/09 05:07:26;;;;;;;17.20;8.75;;;;;;;18.31;63.86;99921.34;3145161;28;20048;-64
2022/09/09 05:08:57;;;;;;;18.55;8.98;;;;;;;18.37;63.65;99938.50;3144901;28;20056;-65
2022/09/09 05:10:29;;;;;;;15.98;8.65;;;;;;;18.38;63.61;99938.38;3145056;28;20262;-65
2022/09/09 05:12:02;;;;;;;17.35;8.98;;;;;;;18.41;63.45;99939.94;3145320;28;20044;-65
2022/09/09 05:13:34;;;;;;;24.83;10.00;;;;;;;18.40;63.47;99941.72;3145112;28;20487;-64
2022/09/09 05:15:07;;;;;;;22.50;9.07;;;;;;;18.44;63.45;99941.50;3144954;28;20049;-64
2022/09/09 05:16:39;;;;;;;27.95;9.70;;;;;;;18.46;63.32;99940.44;3144863;28;20049;-64
2022/09/09 05:18:10;;;;;;;19.92;8.77;;;;;;;18.49;63.31;99934.09;3145095;28;20127;-64
2022/09/09 05:19:42;;;;;;;14.82;9.18;;;;;;;18.49;63.34;99929.66;3137359;28;20056;-63
2022/09/09 05:21:17;;;;;;;18.10;9.60;;;;;;;18.51;63.18;99929.53;3143132;28;20059;-64
2022/09/09 05:22:49;;;;;;;19.02;8.30;;;;;;;18.50;63.05;99938.41;3144903;28;20525;-65
2022/09/09 05:24:22;;;;;;;15.52;7.75;;;;;;;18.45;62.77;99932.63;3145236;28;20071;-65
2022/09/09 05:25:57;;;;;;;;;;;;;;;18.37;62.82;99926.16;3145762;28;20049;-64
2022/09/09 05:27:31;;;;;;;17.15;8.77;;;;;;;18.38;62.78;99934.91;3144763;28;20364;-65
2022/09/09 05:29:03;;;;;;;15.23;7.43;;;;;;;18.35;62.73;99925.41;3145112;28;20055;-65
2022/09/09 05:30:35;;;;;;;16.58;7.75;;;;;;;18.36;62.66;99918.34;3144868;28;20131;-65
2022/09/09 05:32:07;;;;;;;14.85;8.20;;;;;;;18.34;62.94;99923.75;3144826;28;20049;-65
2022/09/09 05:33:41;;;;;;;13.52;7.55;;;;;;;18.38;62.79;99916.44;3144474;28;20056;-65
2022/09/09 05:35:13;;;;;;;13.68;7.57;;;;;;;18.50;62.47;99926.03;3144709;28;20060;-65
2022/09/09 05:36:46;;;;;;;11.10;7.00;;;;;;;18.63;62.33;99928.59;3139076;28;20049;-65
2022/09/09 05:38:19;;;;;;;10.80;7.72;;;;;;;18.73;61.94;99928.72;3144736;28;20129;-66
2022/09/09 05:39:51;;;;;;;15.85;7.28;;;;;;;18.88;61.73;99930.22;3146166;28;20048;-66
2022/09/09 05:41:23;;;;;;;16.55;7.65;;;;;;;19.03;61.56;99933.44;3153036;28;20053;-66
2022/09/09 05:42:55;;;;;;;15.10;7.32;;;;;;;19.19;61.25;99927.78;3145076;28;20538;-66
2022/09/09 05:44:29;;;;;;;13.73;6.60;;;;;;;19.35;60.51;99930.91;3144619;28;20071;-66
2022/09/09 05:46:02;;;;;;;;;;;;;;;19.45;59.73;99928.38;3145311;28;20049;-65
2022/09/09 05:47:34;;;;;;;11.48;6.97;;;;;;;19.55;59.68;99929.28;3145194;28;20289;-65
2022/09/09 05:49:06;;;;;;;14.68;6.97;;;;;;;19.66;59.53;99929.31;3144811;28;20560;-65
2022/09/09 05:50:37;;;;;;;17.80;6.55;;;;;;;19.70;58.68;99930.75;3144747;28;20071;-65
2022/09/09 05:52:10;;;;;;;20.35;7.35;;;;;;;19.80;58.38;99922.06;3144955;28;20536;-65
2022/09/09 05:53:43;;;;;;;15.00;7.63;;;;;;;19.93;58.40;99923.56;3145444;28;20135;-65
2022/09/09 05:55:15;;;;;;;19.33;7.78;;;;;;;20.02;58.01;99921.97;3145015;28;20051;-65
2022/09/09 05:56:49;;;;;;;19.52;6.63;;;;;;;20.10;57.38;99918.72;3144687;28;20041;-65
2022/09/09 05:58:21;;;;;;;13.48;6.97;;;;;;;20.18;56.95;99921.56;3144320;28;20840;-63
2022/09/09 05:59:53;;;;;;;13.82;7.47;;;;;;;20.25;56.59;99927.16;3145008;28;20378;-63
2022/09/09 06:01:27;;;;;;;13.67;6.77;;;;;;;20.27;56.59;99923.44;3144701;28;20052;-63
2022/09/09 06:02:59;;;;;;;12.60;6.53;;;;;;;20.34;56.12;99924.59;3144543;28;20241;-63
2022/09/09 06:04:31;;;;;;;8.38;5.65;;;;;;;20.46;56.08;99931.47;3145083;28;20056;-62
2022/09/09 06:06:06;;;;;;;13.40;5.68;;;;;;;20.56;55.71;99920.19;3144907;28;20064;-63
2022/09/09 06:07:41;;;;;;;13.30;6.57;;;;;;;20.60;55.15;99911.84;3144771;28;20151;-61
2022/09/09 06:09:15;;;;;;;13.63;6.75;;;;;;;20.68;55.21;99903.25;3144755;28;20076;-60
2022/09/09 06:10:45;;;;;;;;;;;;;;;20.70;54.80;99906.59;3145212;28;20048;-62
2022/09/09 06:12:17;;;;;;;15.40;6.00;;;;;;;20.69;54.76;99899.63;3144253;28;20105;-60
2022/09/09 06:13:51;;;;;;;11.85;6.05;;;;;;;20.61;54.56;99891.50;3144854;28;20055;-62
2022/09/09 06:15:23;;;;;;;10.88;5.70;;;;;;;20.60;54.26;99898.59;3144642;28;20136;-61
2022/09/09 06:16:55;;;;;;;11.70;5.47;;;;;;;20.51;54.54;99907.31;3144771;28;20059;-61
2022/09/09 06:18:29;;;;;;;16.55;6.10;;;;;;;20.57;54.66;99906.81;3144439;28;20755;-62
2022/09/09 06:20:00;;;;;;;;;;;;;;;20.63;54.41;99900.16;3155356;28;20155;-63
2022/09/09 06:21:35;;;;;;;14.05;5.55;;;;;;;20.70;54.46;99903.94;3147211;28;20351;-63
2022/09/09 06:23:09;;;;;;;11.85;5.53;;;;;;;20.80;54.44;99904.84;3147333;28;20045;-63
2022/09/09 06:24:40;;;;;;;10.63;5.93;;;;;;;20.89;54.37;99904.03;3147027;28;20052;-63
2022/09/09 06:26:14;;;;;;;15.73;6.32;;;;;;;21.02;53.87;99902.97;3147208;28;20053;-64
2022/09/09 06:27:49;;;;;;;;;;;;;;;21.12;53.76;99899.41;3142186;28;20052;-63
2022/09/09 06:29:21;;;;;;;13.15;6.82;;;;;;;21.20;53.65;99900.53;3147088;28;19947;-63
2022/09/09 06:30:59;;;;;;;14.05;6.05;;;;;;;21.26;53.01;99894.69;3147210;28;20048;-64
2022/09/09 06:32:32;;;;;;;13.35;5.53;;;;;;;21.22;53.02;99895.94;3145474;28;21082;-63
2022/09/09 06:34:06;;;;;;;12.00;6.38;;;;;;;21.14;53.04;99891.31;3146893;28;20492;-64
2022/09/09 06:35:38;;;;;;;11.93;6.47;;;;;;;21.27;52.89;99909.63;3147214;28;20123;-64
2022/09/09 06:37:10;;;;;;;12.68;6.47;;;;;;;21.31;52.88;99916.31;3146908;28;20048;-63
2022/09/09 06:38:43;;;;;;;27.02;7.78;;;;;;;21.38;52.80;99914.81;3147020;28;20063;-63
2022/09/09 06:40:15;;;;;;;11.15;6.30;;;;;;;21.46;52.56;99914.16;3151432;28;20063;-63
2022/09/09 06:41:48;;;;;;;10.60;5.72;;;;;;;21.54;52.38;99916.97;3151856;28;20048;-62
2022/09/09 06:43:20;;;;;;;18.10;5.93;;;;;;;21.60;52.58;99916.41;3146714;28;20741;-62
2022/09/09 06:44:53;;;;;;;12.07;6.00;;;;;;;21.69;52.59;99917.41;3146637;28;20044;-62
2022/09/09 06:46:27;;;;;;;13.98;5.93;;;;;;;21.81;52.45;99918.94;3146964;28;20158;-62
2022/09/09 06:47:59;;;;;;;11.88;5.72;;;;;;;21.90;51.99;99918.09;3146802;28;20048;-62
2022/09/09 06:49:31;;;;;;;9.07;5.45;;;;;;;21.99;51.75;99921.75;3146629;28;20045;-62
2022/09/09 06:51:03;;;;;;;10.13;5.30;;;;;;;22.08;51.75;99923.56;3146603;28;20059;-62
2022/09/09 06:52:35;;;;;;;10.88;5.93;;;;;;;22.16;51.72;99923.69;3145812;28;20049;-62
2022/09/09 06:54:09;;;;;;;12.18;5.57;;;;;;;22.21;51.37;99920.63;3145847;28;20053;-62
2022/09/09 06:55:44;;;;;;;7.28;5.35;;;;;;;22.26;51.35;99923.72;3145798;28;20102;-62
2022/09/09 06:57:15;;;;;;;11.80;5.70;;;;;;;22.33;50.80;99922.19;3145193;28;20059;-62
2022/09/09 06:58:48;;;;;;;14.27;5.80;;;;;;;22.45;50.93;99912.22;3145332;28;20436;-62
2022/09/09 07:00:20;;;;;;;10.07;5.72;;;;;;;22.57;50.53;99918.19;3145515;28;20586;-62
2022/09/09 07:01:54;;;;;;;9.65;5.38;;;;;;;22.69;50.70;99919.72;3145329;28;20041;-63
2022/09/09 07:03:26;;;;;;;14.88;4.88;;;;;;;22.78;50.16;99918.03;3145525;28;20139;-63
2022/09/09 07:04:58;;;;;;;12.18;5.35;;;;;;;22.87;49.57;99917.97;3145650;28;20060;-62
2022/09/09 07:06:32;;;;;;;7.93;4.43;;;;;;;23.01;49.84;99913.19;3145661;28;20145;-62
2022/09/09 07:08:05;;;;;;;12.55;5.10;;;;;;;23.11;49.56;99914.00;3145442;28;20056;-62
2022/09/09 07:09:38;;;;;;;14.67;5.43;;;;;;;23.23;49.16;99912.81;3145785;28;20087;-62
2022/09/09 07:11:10;;;;;;;15.23;4.85;;;;;;;23.35;48.96;99910.81;3145474;28;20368;-62
2022/09/09 07:12:42;;;;;;;15.50;6.38;;;;;;;23.46;48.75;99915.09;3140570;28;20049;-62
2022/09/09 07:14:15;;;;;;;8.30;5.00;;;;;;;23.59;48.02;99912.88;3142654;28;20052;-62
2022/09/09 07:15:47;;;;;;;12.38;4.72;;;;;;;23.72;47.95;99909.88;3138515;28;20045;-62
2022/09/09 07:17:19;;;;;;;9.32;4.93;;;;;;;23.88;47.51;99911.88;3140162;28;20048;-62
2022/09/09 07:18:52;;;;;;;8.55;5.40;;;;;;;23.98;47.20;99908.13;3146607;28;20044;-62
2022/09/09 07:20:24;;;;;;;15.02;5.53;;;;;;;24.02;46.64;99914.00;3143865;28;20051;-62